sensor_id;sensor_type;location;lat;lon;timestamp;temperature;humidity
13960;DHT22;7052;51.050;3.716;2022-09-09T00:01:39;15.60;99.90
13960;DHT22;7052;51.050;3.716;2022-09-09T00:04:15;15.60;99.90
13960;DHT22;7052;51.050;3.716;2022-09-09T00:06:46;15.70;99.90
13960;DHT22;7052;51.050;3.716;2022-09-09T00:09:19;15.70;99.90
13960;DHT22;7052;51.050;3.716;2022-09-09T00:11:50;15.70;99.90
13960;DHT22;7052;51.050;3.716;2022-09-09T00:14:22;15.70;99.90
13960;DHT22;7052;51.050;3.716;2022-09-09T00:16:53;15.70;99.90
13960;DHT22;7052;51.050;3.716;2022-09-09T00:19:24;15.70;99.90
13960;DHT22;7052;51.050;3.716;2022-09-09T00:22:06;15.60;99.90
13960;DHT22;7052;51.050;3.716;2022-09-09T00:24:43;15.60;99.90
13960;DHT22;7052;51.050;3.716;2022-09-09T00:27:18;15.70;99.90
13960;DHT22;7052;51.050;3.716;2022-09-09T00:29:53;15.70;99.90
13960;DHT22;7052;51.050;3.716;2022-09-09T00:32:21;15.60;99.90
13960;DHT22;7052;51.050;3.716;2022-09-09T00:34:50;15.60;99.90
13960;DHT22;7052;51.050;3.716;2022-09-09T00:37:21;15.60;99.90
13960;DHT22;7052;51.050;3.716;2022-09-09T00:39:49;15.60;99.90
13960;DHT22;7052;51.050;3.716;2022-09-09T00:42:23;15.50;99.90
13960;DHT22;7052;51.050;3.716;2022-09-09T00:44:58;15.50;99.90
13960;DHT22;7052;51.050;3.716;2022-09-09T00:47:39;15.50;99.90
13960;DHT22;7052;51.050;3.716;2022-09-09T00:50:16;15.40;99.90
13960;DHT22;7052;51.050;3.716;2022-09-09T00:52:48;15.40;99.90
13960;DHT22;7052;51.050;3.716;2022-09-09T00:55:20;15.40;99.90
13960;DHT22;7052;51.050;3.716;2022-09-09T00:57:52;15.40;99.90
13960;DHT22;7052;51.050;3.716;2022-09-09T01:00:21;15.30;99.90
13960;DHT22;7052;51.050;3.716;2022-09-09T01:02:57;15.40;99.90
13960;DHT22;7052;51.050;3.716;2022-09-09T01:05:33;15.30;99.90
13960;DHT22;7052;51.050;3.716;2022-09-09T01:08:09;15.40;99.90
13960;DHT22;7052;51.050;3.716;2022-09-09T01:10:44;15.40;99.90
13960;DHT22;7052;51.050;3.716;2022-09-09T01:13:19;15.40;99.90
13960;DHT22;7052;51.050;3.716;2022-09-09T01:15:48;15.40;99.90
13960;DHT22;7052;51.050;3.716;2022-09-09T01:18:17;15.40;99.90
13960;DHT22;7052;51.050;3.716;2022-09-09T01:20:52;15.40;99.90
13960;DHT22;7052;51.050;3.716;2022-09-09T01:23:38;15.30;99.90
13960;DHT22;7052;51.050;3.716;2022-09-09T01:26:26;15.30;99.90
13960;DHT22;7052;51.050;3.716;2022-09-09T01:28:55;15.30;99.90
13960;DHT22;7052;51.050;3.716;2022-09-09T01:31:26;15.30;99.90
13960;DHT22;7052;51.050;3.716;2022-09-09T01:33:54;15.30;99.90
13960;DHT22;7052;51.050;3.716;2022-09-09T01:36:26;15.30;99.90
13960;DHT22;7052;51.050;3.716;2022-09-09T01:38:55;15.30;99.90
13960;DHT22;7052;51.050;3.716;2022-09-09T01:41:23;15.30;99.90
13960;DHT22;7052;51.050;3.716;2022-09-09T01:43:50;15.30;99.90
13960;DHT22;7052;51.050;3.716;2022-09-09T01:46:18;15.30;99.90
13960;DHT22;7052;51.050;3.716;2022-09-09T01:48:48;15.30;99.90
13960;DHT22;7052;51.050;3.716;2022-09-09T01:51:16;15.30;99.90
13960;DHT22;7052;51.050;3.716;2022-09-09T01:53:43;15.30;99.90
13960;DHT22;7052;51.050;3.716;2022-09-09T01:56:19;15.30;99.90
13960;DHT22;7052;51.050;3.716;2022-09-09T01:59:01;15.30;99.90
13960;DHT22;7052;51.050;3.716;2022-09-09T02:01:40;15.30;99.90
13960;DHT22;7052;51.050;3.716;2022-09-09T02:04:18;15.30;99.90
13960;DHT22;7052;51.050;3.716;2022-09-09T02:06:48;15.30;99.90
13960;DHT22;7052;51.050;3.716;2022-09-09T02:09:22;15.20;99.90
13960;DHT22;7052;51.050;3.716;2022-09-09T02:11:54;15.20;99.90
13960;DHT22;7052;51.050;3.716;2022-09-09T02:14:27;15.20;99.90
13960;DHT22;7052;51.050;3.716;2022-09-09T02:16:56;15.20;99.90
13960;DHT22;7052;51.050;3.716;2022-09-09T02:19:27;15.20;99.90
13960;DHT22;7052;51.050;3.716;2022-09-09T02:21:59;15.20;99.90
13960;DHT22;7052;51.050;3.716;2022-09-09T02:24:27;15.20;99.90
13960;DHT22;7052;51.050;3.716;2022-09-09T02:26:57;15.30;99.90
13960;DHT22;7052;51.050;3.716;2022-09-09T02:29:29;15.30;99.90
13960;DHT22;7052;51.050;3.716;2022-09-09T02:32:00;15.30;99.90
13960;DHT22;7052;51.050;3.716;2022-09-09T02:34:29;15.40;99.90
13960;DHT22;7052;51.050;3.716;2022-09-09T02:36:57;15.50;99.90
13960;DHT22;7052;51.050;3.716;2022-09-09T02:39:26;15.50;99.90
13960;DHT22;7052;51.050;3.716;2022-09-09T02:41:52;15.50;99.90
13960;DHT22;7052;51.050;3.716;2022-09-09T02:44:19;15.60;99.90
13960;DHT22;7052;51.050;3.716;2022-09-09T02:47:02;15.60;99.90
13960;DHT22;7052;51.050;3.716;2022-09-09T02:49:38;15.60;99.90
13960;DHT22;7052;51.050;3.716;2022-09-09T02:52:08;15.60;99.90
13960;DHT22;7052;51.050;3.716;2022-09-09T02:54:38;15.60;99.90
13960;DHT22;7052;51.050;3.716;2022-09-09T02:57:10;15.60;99.90
13960;DHT22;7052;51.050;3.716;2022-09-09T02:59:37;15.60;99.90
13960;DHT22;7052;51.050;3.716;2022-09-09T03:02:06;15.60;99.90
13960;DHT22;7052;51.050;3.716;2022-09-09T03:04:33;15.60;99.90
13960;DHT22;7052;51.050;3.716;2022-09-09T03:06:59;15.60;99.90
13960;DHT22;7052;51.050;3.716;2022-09-09T03:09:26;15.70;99.90
13960;DHT22;7052;51.050;3.716;2022-09-09T03:11:53;15.60;99.90
13960;DHT22;7052;51.050;3.716;2022-09-09T03:14:21;15.60;99.90
13960;DHT22;7052;51.050;3.716;2022-09-09T03:16:50;15.60;99.90
13960;DHT22;7052;51.050;3.716;2022-09-09T03:19:18;15.60;99.90
13960;DHT22;7052;51.050;3.716;2022-09-09T03:21:45;15.60;99.90
13960;DHT22;7052;51.050;3.716;2022-09-09T03:24:12;15.60;99.90
13960;DHT22;7052;51.050;3.716;2022-09-09T03:26:39;15.60;99.90
13960;DHT22;7052;51.050;3.716;2022-09-09T03:29:06;15.60;99.90
13960;DHT22;7052;51.050;3.716;2022-09-09T03:31:33;15.70;99.90
13960;DHT22;7052;51.050;3.716;2022-09-09T03:34:01;15.70;99.90
13960;DHT22;7052;51.050;3.716;2022-09-09T03:36:29;15.70;99.90
13960;DHT22;7052;51.050;3.716;2022-09-09T03:38:56;15.80;99.90
13960;DHT22;7052;51.050;3.716;2022-09-09T03:41:23;15.80;99.90
13960;DHT22;7052;51.050;3.716;2022-09-09T03:43:50;15.80;99.90
13960;DHT22;7052;51.050;3.716;2022-09-09T03:46:17;15.80;99.90
13960;DHT22;7052;51.050;3.716;2022-09-09T03:48:44;15.80;99.90
13960;DHT22;7052;51.050;3.716;2022-09-09T03:51:11;15.90;99.90
13960;DHT22;7052;51.050;3.716;2022-09-09T03:53:39;15.90;99.90
13960;DHT22;7052;51.050;3.716;2022-09-09T03:56:06;15.90;99.90
13960;DHT22;7052;51.050;3.716;2022-09-09T03:58:33;15.90;99.90
13960;DHT22;7052;51.050;3.716;2022-09-09T04:01:02;15.80;99.90
13960;DHT22;7052;51.050;3.716;2022-09-09T04:03:29;15.80;99.90
13960;DHT22;7052;51.050;3.716;2022-09-09T04:05:57;15.80;99.90
13960;DHT22;7052;51.050;3.716;2022-09-09T04:08:25;15.80;99.90
13960;DHT22;7052;51.050;3.716;2022-09-09T04:10:54;15.80;99.90
13960;DHT22;7052;51.050;3.716;2022-09-09T04:13:24;15.80;99.90
13960;DHT22;7052;51.050;3.716;2022-09-09T04:15:52;15.80;99.90
13960;DHT22;7052;51.050;3.716;2022-09-09T04:18:19;15.80;99.90
13960;DHT22;7052;51.050;3.716;2022-09-09T04:20:47;15.80;99.90
13960;DHT22;7052;51.050;3.716;2022-09-09T04:23:14;15.80;99.90
13960;DHT22;7052;51.050;3.716;2022-09-09T04:25:44;15.80;99.90
13960;DHT22;7052;51.050;3.716;2022-09-09T04:28:13;15.80;99.90
13960;DHT22;7052;51.050;3.716;2022-09-09T04:30:41;15.90;99.90
13960;DHT22;7052;51.050;3.716;2022-09-09T04:33:09;15.90;99.90
13960;DHT22;7052;51.050;3.716;2022-09-09T04:35:36;15.90;99.90
13960;DHT22;7052;51.050;3.716;2022-09-09T04:38:04;15.90;99.90
13960;DHT22;7052;51.050;3.716;2022-09-09T04:40:32;15.90;99.90
13960;DHT22;7052;51.050;3.716;2022-09-09T04:43:00;15.90;99.90
13960;DHT22;7052;51.050;3.716;2022-09-09T04:45:29;16.00;99.90
13960;DHT22;7052;51.050;3.716;2022-09-09T04:47:56;16.00;99.90
13960;DHT22;7052;51.050;3.716;2022-09-09T04:50:23;16.00;99.90
13960;DHT22;7052;51.050;3.716;2022-09-09T04:52:50;16.00;99.90
13960;DHT22;7052;51.050;3.716;2022-09-09T04:55:17;15.90;99.90
13960;DHT22;7052;51.050;3.716;2022-09-09T04:57:43;15.90;99.90
13960;DHT22;7052;51.050;3.716;2022-09-09T05:00:11;15.90;99.90
13960;DHT22;7052;51.050;3.716;2022-09-09T05:02:39;16.00;99.90
13960;DHT22;7052;51.050;3.716;2022-09-09T05:05:07;15.90;99.90
13960;DHT22;7052;51.050;3.716;2022-09-09T05:07:36;15.80;99.90
13960;DHT22;7052;51.050;3.716;2022-09-09T05:10:03;15.80;99.90
13960;DHT22;7052;51.050;3.716;2022-09-09T05:12:31;15.90;99.90
13960;DHT22;7052;51.050;3.716;2022-09-09T05:14:58;15.90;99.90
13960;DHT22;7052;51.050;3.716;2022-09-09T05:17:25;15.90;99.90
13960;DHT22;7052;51.050;3.716;2022-09-09T05:19:53;15.90;99.90
13960;DHT22;7052;51.050;3.716;2022-09-09T05:22:20;15.90;99.90
13960;DHT22;7052;51.050;3.716;2022-09-09T05:24:49;15.90;99.90
13960;DHT22;7052;51.050;3.716;2022-09-09T05:27:17;15.90;99.90
13960;DHT22;7052;51.050;3.716;2022-09-09T05:29:45;15.90;99.90
13960;DHT22;7052;51.050;3.716;2022-09-09T05:32:12;16.00;99.90
13960;DHT22;7052;51.050;3.716;2022-09-09T05:34:40;16.00;99.90
13960;DHT22;7052;51.050;3.716;2022-09-09T05:37:08;16.00;99.90
13960;DHT22;7052;51.050;3.716;2022-09-09T05:39:35;16.00;99.90
13960;DHT22;7052;51.050;3.716;2022-09-09T05:42:03;16.10;99.90
13960;DHT22;7052;51.050;3.716;2022-09-09T05:44:31;16.10;99.90
13960;DHT22;7052;51.050;3.716;2022-09-09T05:46:57;16.10;99.90
13960;DHT22;7052;51.050;3.716;2022-09-09T05:49:24;16.10;99.90
13960;DHT22;7052;51.050;3.716;2022-09-09T05:51:51;16.10;99.90
13960;DHT22;7052;51.050;3.716;2022-09-09T05:54:19;16.10;99.90
13960;DHT22;7052;51.050;3.716;2022-09-09T05:56:47;16.10;99.90
13960;DHT22;7052;51.050;3.716;2022-09-09T05:59:15;16.20;99.90
13960;DHT22;7052;51.050;3.716;2022-09-09T06:01:42;16.20;99.90
13960;DHT22;7052;51.050;3.716;2022-09-09T06:04:09;16.20;99.90
13960;DHT22;7052;51.050;3.716;2022-09-09T06:06:37;16.30;99.90
13960;DHT22;7052;51.050;3.716;2022-09-09T06:09:07;16.30;99.90
13960;DHT22;7052;51.050;3.716;2022-09-09T06:11:37;16.30;99.90
13960;DHT22;7052;51.050;3.716;2022-09-09T06:14:05;16.30;99.90
13960;DHT22;7052;51.050;3.716;2022-09-09T06:16:32;16.20;99.90
13960;DHT22;7052;51.050;3.716;2022-09-09T06:19:00;16.20;99.90
13960;DHT22;7052;51.050;3.716;2022-09-09T06:21:29;16.10;99.90
13960;DHT22;7052;51.050;3.716;2022-09-09T06:23:57;16.00;99.90
13960;DHT22;7052;51.050;3.716;2022-09-09T06:26:25;16.00;99.90
13960;DHT22;7052;51.050;3.716;2022-09-09T06:28:54;16.00;99.90
13960;DHT22;7052;51.050;3.716;2022-09-09T06:31:24;16.00;99.90
13960;DHT22;7052;51.050;3.716;2022-09-09T06:33:52;15.90;99.90
13960;DHT22;7052;51.050;3.716;2022-09-09T06:36:24;15.90;99.90
13960;DHT22;7052;51.050;3.716;2022-09-09T06:38:51;16.00;99.90
13960;DHT22;7052;51.050;3.716;2022-09-09T06:41:20;16.00;99.90
13960;DHT22;7052;51.050;3.716;2022-09-09T06:43:47;16.00;99.90
13960;DHT22;7052;51.050;3.716;2022-09-09T06:46:16;16.10;99.90
13960;DHT22;7052;51.050;3.716;2022-09-09T06:48:44;16.20;99.90
13960;DHT22;7052;51.050;3.716;2022-09-09T06:51:13;16.20;99.90
13960;DHT22;7052;51.050;3.716;2022-09-09T06:53:42;16.30;99.90
13960;DHT22;7052;51.050;3.716;2022-09-09T06:56:20;16.30;99.90
13960;DHT22;7052;51.050;3.716;2022-09-09T06:58:49;16.50;99.90
13960;DHT22;7052;51.050;3.716;2022-09-09T07:01:20;16.60;99.90
13960;DHT22;7052;51.050;3.716;2022-09-09T07:03:49;16.80;99.90
13960;DHT22;7052;51.050;3.716;2022-09-09T07:06:18;17.10;99.90
13960;DHT22;7052;51.050;3.716;2022-09-09T07:08:49;17.50;99.90
13960;DHT22;7052;51.050;3.716;2022-09-09T07:11:18;17.60;99.90
13960;DHT22;7052;51.050;3.716;2022-09-09T07:13:46;17.60;99.90
13960;DHT22;7052;51.050;3.716;2022-09-09T07:16:14;17.60;99.90
13960;DHT22;7052;51.050;3.716;2022-09-09T07:18:43;17.60;99.90
13960;DHT22;7052;51.050;3.716;2022-09-09T07:21:11;17.40;99.90
13960;DHT22;7052;51.050;3.716;2022-09-09T07:23:38;17.40;99.90
13960;DHT22;7052;51.050;3.716;2022-09-09T07:26:08;17.30;99.90
13960;DHT22;7052;51.050;3.716;2022-09-09T07:28:36;17.30;99.90
13960;DHT22;7052;51.050;3.716;2022-09-09T07:31:04;17.40;99.90
13960;DHT22;7052;51.050;3.716;2022-09-09T07:33:32;17.50;99.90
13960;DHT22;7052;51.050;3.716;2022-09-09T07:36:05;17.50;99.90
13960;DHT22;7052;51.050;3.716;2022-09-09T07:38:32;17.60;99.90
13960;DHT22;7052;51.050;3.716;2022-09-09T07:41:04;17.60;99.90
13960;DHT22;7052;51.050;3.716;2022-09-09T07:43:33;17.70;99.90
13960;DHT22;7052;51.050;3.716;2022-09-09T07:46:00;17.70;99.90
13960;DHT22;7052;51.050;3.716;2022-09-09T07:48:27;17.80;99.90
13960;DHT22;7052;51.050;3.716;2022-09-09T07:51:05;17.80;99.90
13960;DHT22;7052;51.050;3.716;2022-09-09T07:53:33;17.70;99.90
13960;DHT22;7052;51.050;3.716;2022-09-09T07:56:05;17.60;99.90
13960;DHT22;7052;51.050;3.716;2022-09-09T07:58:32;17.60;99.90
13960;DHT22;7052;51.050;3.716;2022-09-09T08:00:58;17.50;99.90
13960;DHT22;7052;51.050;3.716;2022-09-09T08:03:25;17.40;99.90
13960;DHT22;7052;51.050;3.716;2022-09-09T08:05:52;17.40;99.90
13960;DHT22;7052;51.050;3.716;2022-09-09T08:08:20;17.30;99.90
13960;DHT22;7052;51.050;3.716;2022-09-09T08:10:47;17.30;99.90
13960;DHT22;7052;51.050;3.716;2022-09-09T08:13:13;17.20;99.90
13960;DHT22;7052;51.050;3.716;2022-09-09T08:15:41;17.00;99.90
13960;DHT22;7052;51.050;3.716;2022-09-09T08:18:09;16.90;99.90
13960;DHT22;7052;51.050;3.716;2022-09-09T08:20:36;16.90;99.90
13960;DHT22;7052;51.050;3.716;2022-09-09T08:23:03;16.80;99.90
13960;DHT22;7052;51.050;3.716;2022-09-09T08:25:32;16.80;99.90
13960;DHT22;7052;51.050;3.716;2022-09-09T08:28:00;16.80;99.90
13960;DHT22;7052;51.050;3.716;2022-09-09T08:30:27;16.80;99.90
13960;DHT22;7052;51.050;3.716;2022-09-09T08:32:53;16.80;99.90
13960;DHT22;7052;51.050;3.716;2022-09-09T08:35:20;16.70;99.90
13960;DHT22;7052;51.050;3.716;2022-09-09T08:37:47;16.70;99.90
13960;DHT22;7052;51.050;3.716;2022-09-09T08:40:21;16.70;99.90
13960;DHT22;7052;51.050;3.716;2022-09-09T08:42:55;16.70;99.90
13960;DHT22;7052;51.050;3.716;2022-09-09T08:45:34;16.70;99.90
13960;DHT22;7052;51.050;3.716;2022-09-09T08:48:21;16.80;99.90
13960;DHT22;7052;51.050;3.716;2022-09-09T08:50:50;16.80;99.90
13960;DHT22;7052;51.050;3.716;2022-09-09T08:53:20;16.90;99.90
13960;DHT22;7052;51.050;3.716;2022-09-09T08:55:49;16.80;99.90
13960;DHT22;7052;51.050;3.716;2022-09-09T08:58:20;16.90;99.90
13960;DHT22;7052;51.050;3.716;2022-09-09T09:00:59;16.90;99.90
13960;DHT22;7052;51.050;3.716;2022-09-09T09:03:33;16.90;99.90
13960;DHT22;7052;51.050;3.716;2022-09-09T09:06:06;16.90;99.90
13960;DHT22;7052;51.050;3.716;2022-09-09T09:08:41;16.80;99.90
13960;DHT22;7052;51.050;3.716;2022-09-09T09:11:10;16.80;99.90
13960;DHT22;7052;51.050;3.716;2022-09-09T09:13:44;16.80;99.90
13960;DHT22;7052;51.050;3.716;2022-09-09T09:16:19;16.80;99.90
13960;DHT22;7052;51.050;3.716;2022-09-09T09:18:48;16.90;99.90
13960;DHT22;7052;51.050;3.716;2022-09-09T09:21:19;16.90;99.90
13960;DHT22;7052;51.050;3.716;2022-09-09T09:23:55;17.00;99.90
13960;DHT22;7052;51.050;3.716;2022-09-09T09:26:24;17.10;99.90
13960;DHT22;7052;51.050;3.716;2022-09-09T09:28:55;17.30;99.90
13960;DHT22;7052;51.050;3.716;2022-09-09T09:31:22;17.50;99.90
13960;DHT22;7052;51.050;3.716;2022-09-09T09:33:53;17.80;99.90
13960;DHT22;7052;51.050;3.716;2022-09-09T09:36:21;17.90;99.90
13960;DHT22;7052;51.050;3.716;2022-09-09T09:38:55;18.10;99.90
13960;DHT22;7052;51.050;3.716;2022-09-09T09:41:30;18.20;99.90
13960;DHT22;7052;51.050;3.716;2022-09-09T09:43:58;18.20;99.90
13960;DHT22;7052;51.050;3.716;2022-09-09T09:46:26;18.30;99.90
13960;DHT22;7052;51.050;3.716;2022-09-09T09:48:57;18.30;99.90
13960;DHT22;7052;51.050;3.716;2022-09-09T09:51:25;18.20;99.90
13960;DHT22;7052;51.050;3.716;2022-09-09T09:53:53;18.10;99.90
13960;DHT22;7052;51.050;3.716;2022-09-09T09:56:27;18.10;99.90
13960;DHT22;7052;51.050;3.716;2022-09-09T09:58:55;18.10;99.90
13960;DHT22;7052;51.050;3.716;2022-09-09T10:01:24;18.10;99.90
13960;DHT22;7052;51.050;3.716;2022-09-09T10:03:54;18.00;99.90
13960;DHT22;7052;51.050;3.716;2022-09-09T10:06:30;18.10;99.90
13960;DHT22;7052;51.050;3.716;2022-09-09T10:08:59;18.10;99.90
13960;DHT22;7052;51.050;3.716;2022-09-09T10:11:34;18.10;99.90
13960;DHT22;7052;51.050;3.716;2022-09-09T10:14:08;18.10;99.90
13960;DHT22;7052;51.050;3.716;2022-09-09T10:16:59;18.10;99.90
13960;DHT22;7052;51.050;3.716;2022-09-09T10:19:30;18.20;99.90
13960;DHT22;7052;51.050;3.716;2022-09-09T10:22:08;18.30;99.90
13960;DHT22;7052;51.050;3.716;2022-09-09T10:24:54;18.50;99.90
13960;DHT22;7052;51.050;3.716;2022-09-09T10:27:33;18.60;99.90
13960;DHT22;7052;51.050;3.716;2022-09-09T10:30:11;18.60;99.90
13960;DHT22;7052;51.050;3.716;2022-09-09T10:32:46;18.60;99.90
13960;DHT22;7052;51.050;3.716;2022-09-09T10:35:22;18.50;99.90
13960;DHT22;7052;51.050;3.716;2022-09-09T10:38:16;18.50;99.90
13960;DHT22;7052;51.050;3.716;2022-09-09T10:41:00;18.50;99.90
13960;DHT22;7052;51.050;3.716;2022-09-09T10:46:26;18.60;99.90
13960;DHT22;7052;51.050;3.716;2022-09-09T10:49:07;18.80;99.90
13960;DHT22;7052;51.050;3.716;2022-09-09T10:51:48;19.10;99.90
13960;DHT22;7052;51.050;3.716;2022-09-09T10:54:29;19.20;99.90
13960;DHT22;7052;51.050;3.716;2022-09-09T10:57:03;19.30;99.90
13960;DHT22;7052;51.050;3.716;2022-09-09T10:59:34;19.20;99.90
13960;DHT22;7052;51.050;3.716;2022-09-09T11:02:05;19.30;99.90
13960;DHT22;7052;51.050;3.716;2022-09-09T11:04:42;19.20;99.90
13960;DHT22;7052;51.050;3.716;2022-09-09T11:07:14;19.20;99.90
13960;DHT22;7052;51.050;3.716;2022-09-09T11:09:47;19.30;99.90
13960;DHT22;7052;51.050;3.716;2022-09-09T11:12:19;19.40;99.90
13960;DHT22;7052;51.050;3.716;2022-09-09T11:14:50;19.40;99.90
13960;DHT22;7052;51.050;3.716;2022-09-09T11:17:22;19.50;99.90
13960;DHT22;7052;51.050;3.716;2022-09-09T11:19:51;19.90;99.90
13960;DHT22;7052;51.050;3.716;2022-09-09T11:22:25;20.00;99.90
13960;DHT22;7052;51.050;3.716;2022-09-09T11:24:59;20.40;99.90
13960;DHT22;7052;51.050;3.716;2022-09-09T11:27:29;20.50;99.90
13960;DHT22;7052;51.050;3.716;2022-09-09T11:30:15;20.60;99.90
13960;DHT22;7052;51.050;3.716;2022-09-09T11:36:18;20.80;99.90
13960;DHT22;7052;51.050;3.716;2022-09-09T11:38:51;20.80;99.90
13960;DHT22;7052;51.050;3.716;2022-09-09T11:41:19;20.80;99.90
13960;DHT22;7052;51.050;3.716;2022-09-09T11:43:48;20.90;99.90
13960;DHT22;7052;51.050;3.716;2022-09-09T11:46:19;20.90;99.90
13960;DHT22;7052;51.050;3.716;2022-09-09T11:48:58;20.90;99.90
13960;DHT22;7052;51.050;3.716;2022-09-09T11:51:28;20.80;99.90
13960;DHT22;7052;51.050;3.716;2022-09-09T11:53:58;20.70;99.90
13960;DHT22;7052;51.050;3.716;2022-09-09T11:56:29;20.60;99.90
13960;DHT22;7052;51.050;3.716;2022-09-09T11:58:59;20.30;99.90
13960;DHT22;7052;51.050;3.716;2022-09-09T12:01:35;20.30;99.90
13960;DHT22;7052;51.050;3.716;2022-09-09T12:04:16;20.40;99.90
13960;DHT22;7052;51.050;3.716;2022-09-09T12:06:46;20.30;99.90
13960;DHT22;7052;51.050;3.716;2022-09-09T12:09:31;20.40;99.90
13960;DHT22;7052;51.050;3.716;2022-09-09T12:12:06;20.40;99.90
13960;DHT22;7052;51.050;3.716;2022-09-09T12:14:38;20.50;99.90
13960;DHT22;7052;51.050;3.716;2022-09-09T12:17:17;20.50;99.90
13960;DHT22;7052;51.050;3.716;2022-09-09T12:19:45;20.50;99.90
13960;DHT22;7052;51.050;3.716;2022-09-09T12:22:20;20.60;99.90
13960;DHT22;7052;51.050;3.716;2022-09-09T12:24:54;20.60;99.90
13960;DHT22;7052;51.050;3.716;2022-09-09T12:27:28;20.50;99.90
13960;DHT22;7052;51.050;3.716;2022-09-09T12:30:02;20.50;99.90
13960;DHT22;7052;51.050;3.716;2022-09-09T12:32:31;20.60;99.90
13960;DHT22;7052;51.050;3.716;2022-09-09T12:35:02;20.60;99.90
13960;DHT22;7052;51.050;3.716;2022-09-09T12:37:35;20.60;99.90
13960;DHT22;7052;51.050;3.716;2022-09-09T12:40:04;20.60;99.90
13960;DHT22;7052;51.050;3.716;2022-09-09T12:42:31;20.80;99.90
13960;DHT22;7052;51.050;3.716;2022-09-09T12:45:00;20.90;99.90
13960;DHT22;7052;51.050;3.716;2022-09-09T12:47:37;20.90;99.90
13960;DHT22;7052;51.050;3.716;2022-09-09T12:50:15;20.90;99.90
13960;DHT22;7052;51.050;3.716;2022-09-09T12:52:44;20.80;99.90
13960;DHT22;7052;51.050;3.716;2022-09-09T12:55:18;20.70;99.90
13960;DHT22;7052;51.050;3.716;2022-09-09T12:57:48;20.50;99.90
13960;DHT22;7052;51.050;3.716;2022-09-09T13:00:18;20.40;99.90
13960;DHT22;7052;51.050;3.716;2022-09-09T13:02:47;20.40;99.90
13960;DHT22;7052;51.050;3.716;2022-09-09T13:05:18;20.40;99.90
13960;DHT22;7052;51.050;3.716;2022-09-09T13:07:47;20.40;99.90
13960;DHT22;7052;51.050;3.716;2022-09-09T13:10:20;20.30;99.90
13960;DHT22;7052;51.050;3.716;2022-09-09T13:12:48;20.20;99.90
13960;DHT22;7052;51.050;3.716;2022-09-09T13:15:20;20.20;99.90
13960;DHT22;7052;51.050;3.716;2022-09-09T13:17:56;20.10;99.90
13960;DHT22;7052;51.050;3.716;2022-09-09T13:20:24;20.10;99.90
13960;DHT22;7052;51.050;3.716;2022-09-09T13:22:53;20.20;99.90
13960;DHT22;7052;51.050;3.716;2022-09-09T13:25:24;20.40;99.90
13960;DHT22;7052;51.050;3.716;2022-09-09T13:27:54;20.60;99.90
13960;DHT22;7052;51.050;3.716;2022-09-09T13:30:24;20.90;99.90
13960;DHT22;7052;51.050;3.716;2022-09-09T13:33:06;21.20;99.90
13960;DHT22;7052;51.050;3.716;2022-09-09T13:35:46;21.40;99.90
13960;DHT22;7052;51.050;3.716;2022-09-09T13:38:16;21.50;99.90
13960;DHT22;7052;51.050;3.716;2022-09-09T13:40:53;21.70;99.90
13960;DHT22;7052;51.050;3.716;2022-09-09T13:43:22;21.90;99.90
13960;DHT22;7052;51.050;3.716;2022-09-09T13:45:55;22.00;99.90
13960;DHT22;7052;51.050;3.716;2022-09-09T13:48:23;21.90;99.90
13960;DHT22;7052;51.050;3.716;2022-09-09T13:50:59;21.90;99.90
13960;DHT22;7052;51.050;3.716;2022-09-09T13:53:28;21.70;99.90
13960;DHT22;7052;51.050;3.716;2022-09-09T13:55:56;21.50;99.90
13960;DHT22;7052;51.050;3.716;2022-09-09T13:58:24;21.40;99.90
13960;DHT22;7052;51.050;3.716;2022-09-09T14:00:52;21.30;99.90
13960;DHT22;7052;51.050;3.716;2022-09-09T14:03:20;21.30;99.90
13960;DHT22;7052;51.050;3.716;2022-09-09T14:05:47;21.10;99.90
13960;DHT22;7052;51.050;3.716;2022-09-09T14:08:21;21.10;99.90
13960;DHT22;7052;51.050;3.716;2022-09-09T14:10:50;21.10;99.90
13960;DHT22;7052;51.050;3.716;2022-09-09T14:13:18;21.00;99.90
13960;DHT22;7052;51.050;3.716;2022-09-09T14:15:48;21.00;99.90
13960;DHT22;7052;51.050;3.716;2022-09-09T14:18:15;20.80;99.90
13960;DHT22;7052;51.050;3.716;2022-09-09T14:20:42;20.80;99.90
13960;DHT22;7052;51.050;3.716;2022-09-09T14:23:10;20.70;99.90
13960;DHT22;7052;51.050;3.716;2022-09-09T14:25:40;20.70;99.90
13960;DHT22;7052;51.050;3.716;2022-09-09T14:28:09;20.70;99.90
13960;DHT22;7052;51.050;3.716;2022-09-09T14:30:38;20.70;99.90
13960;DHT22;7052;51.050;3.716;2022-09-09T14:33:05;20.70;99.90
13960;DHT22;7052;51.050;3.716;2022-09-09T14:35:32;20.90;99.90
13960;DHT22;7052;51.050;3.716;2022-09-09T14:37:59;21.30;99.90
13960;DHT22;7052;51.050;3.716;2022-09-09T14:40:28;21.60;99.90
13960;DHT22;7052;51.050;3.716;2022-09-09T14:42:54;21.80;99.90
13960;DHT22;7052;51.050;3.716;2022-09-09T14:45:23;22.00;99.90
13960;DHT22;7052;51.050;3.716;2022-09-09T14:47:52;22.30;99.90
13960;DHT22;7052;51.050;3.716;2022-09-09T14:50:19;22.60;99.90
13960;DHT22;7052;51.050;3.716;2022-09-09T14:52:48;22.70;99.90
13960;DHT22;7052;51.050;3.716;2022-09-09T14:55:16;22.70;99.90
13960;DHT22;7052;51.050;3.716;2022-09-09T14:57:44;22.50;99.90
13960;DHT22;7052;51.050;3.716;2022-09-09T15:00:11;22.40;99.90
13960;DHT22;7052;51.050;3.716;2022-09-09T15:02:39;22.20;99.90
13960;DHT22;7052;51.050;3.716;2022-09-09T15:05:06;22.10;99.90
13960;DHT22;7052;51.050;3.716;2022-09-09T15:07:33;22.00;99.90
13960;DHT22;7052;51.050;3.716;2022-09-09T15:10:02;21.90;99.90
13960;DHT22;7052;51.050;3.716;2022-09-09T15:12:28;21.70;99.90
13960;DHT22;7052;51.050;3.716;2022-09-09T15:14:55;21.70;99.90
13960;DHT22;7052;51.050;3.716;2022-09-09T15:17:22;21.60;99.90
13960;DHT22;7052;51.050;3.716;2022-09-09T15:19:53;21.50;99.90
13960;DHT22;7052;51.050;3.716;2022-09-09T15:22:21;21.40;99.90
13960;DHT22;7052;51.050;3.716;2022-09-09T15:24:48;21.40;99.90
13960;DHT22;7052;51.050;3.716;2022-09-09T15:27:14;21.40;99.90
13960;DHT22;7052;51.050;3.716;2022-09-09T15:29:41;21.50;99.90
13960;DHT22;7052;51.050;3.716;2022-09-09T15:32:09;21.40;99.90
13960;DHT22;7052;51.050;3.716;2022-09-09T15:34:36;21.30;99.90
13960;DHT22;7052;51.050;3.716;2022-09-09T15:37:04;21.30;99.90
13960;DHT22;7052;51.050;3.716;2022-09-09T15:39:32;21.10;99.90
13960;DHT22;7052;51.050;3.716;2022-09-09T15:41:58;21.00;99.90
13960;DHT22;7052;51.050;3.716;2022-09-09T15:44:27;20.90;99.90
13960;DHT22;7052;51.050;3.716;2022-09-09T15:46:54;20.80;99.90
13960;DHT22;7052;51.050;3.716;2022-09-09T15:49:22;20.70;99.90
13960;DHT22;7052;51.050;3.716;2022-09-09T15:51:52;20.60;99.90
13960;DHT22;7052;51.050;3.716;2022-09-09T15:54:22;20.50;99.90
13960;DHT22;7052;51.050;3.716;2022-09-09T15:56:52;20.40;99.90
13960;DHT22;7052;51.050;3.716;2022-09-09T15:59:20;20.40;99.90
13960;DHT22;7052;51.050;3.716;2022-09-09T16:01:47;20.40;99.90
13960;DHT22;7052;51.050;3.716;2022-09-09T16:04:16;20.50;99.90
13960;DHT22;7052;51.050;3.716;2022-09-09T16:06:49;20.50;99.90
13960;DHT22;7052;51.050;3.716;2022-09-09T16:09:16;20.50;99.90
13960;DHT22;7052;51.050;3.716;2022-09-09T16:11:44;20.50;99.90